createdAt,value
2018-08-24T00:00:14.324Z,22.70
2018-08-24T00:02:42.931Z,22.60
2018-08-24T00:05:11.455Z,22.60
2018-08-24T00:07:40.013Z,22.50
2018-08-24T00:10:21.230Z,22.50
2018-08-24T00:12:49.831Z,22.40
2018-08-24T00:15:21.691Z,22.40
2018-08-24T00:17:50.219Z,22.30
2018-08-24T00:20:18.819Z,22.40
2018-08-24T00:22:47.387Z,22.30
2018-08-24T00:25:15.962Z,22.20
2018-08-24T00:27:44.525Z,22.20
2018-08-24T00:30:13.919Z,22.20
2018-08-24T00:32:42.521Z,22.10
2018-08-24T00:35:11.190Z,22.10
2018-08-24T00:37:39.710Z,22.00
2018-08-24T00:40:10.076Z,22.00
2018-08-24T00:42:38.677Z,21.90
2018-08-24T00:45:07.422Z,21.90
2018-08-24T00:47:35.958Z,21.80
2018-08-24T00:50:04.606Z,21.70
2018-08-24T00:52:33.135Z,21.70
2018-08-24T00:55:02.375Z,21.70
2018-08-24T00:57:30.937Z,21.70
2018-08-24T00:59:59.601Z,21.70
2018-08-24T01:02:28.116Z,21.60
2018-08-24T01:04:56.740Z,21.60
2018-08-24T01:07:25.954Z,21.50
2018-08-24T01:10:11.928Z,21.50
2018-08-24T01:12:40.592Z,21.50
2018-08-24T01:15:09.141Z,21.50
2018-08-24T01:17:43.062Z,21.40
2018-08-24T01:20:11.657Z,21.40
2018-08-24T01:22:40.229Z,21.30
2018-08-24T01:25:08.771Z,21.30
2018-08-24T01:27:37.408Z,21.30
2018-08-24T01:30:06.132Z,21.20
2018-08-24T01:32:34.870Z,21.20
2018-08-24T01:35:03.436Z,21.20
2018-08-24T01:37:32.076Z,21.20
2018-08-24T01:40:00.663Z,21.20
2018-08-24T01:42:29.255Z,21.10
2018-08-24T01:44:57.779Z,21.10
2018-08-24T01:47:26.424Z,21.10
2018-08-24T01:49:54.995Z,21.00
2018-08-24T01:52:23.611Z,21.00
2018-08-24T01:54:52.239Z,20.90
2018-08-24T01:57:20.827Z,20.90
2018-08-24T01:59:49.464Z,20.90
2018-08-24T02:02:18.050Z,20.90
2018-08-24T02:04:46.731Z,20.90
2018-08-24T02:07:15.328Z,20.80
2018-08-24T02:09:47.815Z,20.80
2018-08-24T02:12:21.531Z,20.70
2018-08-24T02:14:50.142Z,20.60
2018-08-24T02:17:24.003Z,20.60
2018-08-24T02:19:57.887Z,20.60
2018-08-24T02:22:26.458Z,20.50
2018-08-24T02:24:55.079Z,20.40
2018-08-24T02:27:23.633Z,20.40
2018-08-24T02:29:56.399Z,20.40
2018-08-24T02:32:25.207Z,20.40
2018-08-24T02:34:53.915Z,20.40
2018-08-24T02:37:22.448Z,20.30
2018-08-24T02:39:51.011Z,20.30
2018-08-24T02:42:19.637Z,20.20
2018-08-24T02:44:48.283Z,20.20
2018-08-24T02:47:16.915Z,20.20
2018-08-24T02:49:45.431Z,20.10
2018-08-24T02:52:14.103Z,20.00
2018-08-24T02:54:42.756Z,20.00
2018-08-24T02:57:11.365Z,19.90
2018-08-24T02:59:39.895Z,19.90
2018-08-24T03:02:08.501Z,19.80
2018-08-24T03:04:37.135Z,19.80
2018-08-24T03:07:05.681Z,19.80
2018-08-24T03:09:34.237Z,19.70
2018-08-24T03:12:06.847Z,19.70
2018-08-24T03:14:35.385Z,19.70
2018-08-24T03:17:09.284Z,19.60
2018-08-24T03:19:37.855Z,19.60
2018-08-24T03:22:06.652Z,19.60
2018-08-24T03:24:35.188Z,19.50
2018-08-24T03:27:05.082Z,19.50
2018-08-24T03:29:33.578Z,19.40
2018-08-24T03:32:03.113Z,19.40
2018-08-24T03:34:31.688Z,19.40
2018-08-24T03:37:00.336Z,19.40
2018-08-24T03:39:28.959Z,19.40
2018-08-24T03:41:57.646Z,19.40
2018-08-24T03:44:26.250Z,19.30
2018-08-24T03:46:54.983Z,19.30
2018-08-24T03:49:23.551Z,19.30
2018-08-24T03:51:52.088Z,19.40
2018-08-24T03:54:21.823Z,19.40
2018-08-24T03:56:56.844Z,19.30
2018-08-24T03:59:26.036Z,19.30
2018-08-24T04:01:55.631Z,19.20
2018-08-24T04:04:24.658Z,19.20
2018-08-24T04:06:53.244Z,19.20
2018-08-24T04:11:55.974Z,19.20
2018-08-24T04:14:24.540Z,19.20
2018-08-24T04:16:58.356Z,19.20
2018-08-24T04:19:28.125Z,19.20
2018-08-24T04:21:57.263Z,19.10
2018-08-24T04:24:25.852Z,19.10
2018-08-24T04:26:55.086Z,19.10
2018-08-24T04:29:24.336Z,19.20
2018-08-24T04:31:52.952Z,19.20
2018-08-24T04:34:21.648Z,19.20
2018-08-24T04:36:50.242Z,19.10
2018-08-24T04:39:19.539Z,19.10
2018-08-24T04:41:48.109Z,19.10
2018-08-24T04:44:16.723Z,19.10
2018-08-24T04:46:45.322Z,19.10
2018-08-24T04:49:13.930Z,19.20
2018-08-24T04:51:42.509Z,19.20
2018-08-24T04:54:11.108Z,19.30
2018-08-24T04:56:39.753Z,19.30
2018-08-24T04:59:08.303Z,19.30
2018-08-24T05:01:36.932Z,19.30
2018-08-24T05:04:05.508Z,19.40
2018-08-24T05:06:34.084Z,19.40
2018-08-24T05:09:02.700Z,19.50
2018-08-24T05:11:31.703Z,19.50
2018-08-24T05:14:00.292Z,19.60
2018-08-24T05:16:28.867Z,19.60
2018-08-24T05:18:57.488Z,19.70
2018-08-24T05:21:26.158Z,19.80
2018-08-24T05:23:54.683Z,19.80
2018-08-24T05:26:23.368Z,19.80
2018-08-24T05:28:51.960Z,19.90
2018-08-24T05:31:20.547Z,20.00
2018-08-24T05:33:49.119Z,20.00
2018-08-24T05:36:17.696Z,20.10
2018-08-24T05:38:46.268Z,20.10
2018-08-24T05:41:14.930Z,20.20
2018-08-24T05:43:43.569Z,20.20
2018-08-24T05:46:12.143Z,20.30
2018-08-24T05:48:40.668Z,20.30
2018-08-24T05:51:09.234Z,20.40
2018-08-24T05:53:37.806Z,20.50
2018-08-24T05:56:06.386Z,20.50
2018-08-24T05:58:34.964Z,20.60
2018-08-24T06:01:03.529Z,20.70
2018-08-24T06:03:32.180Z,20.70
2018-08-24T06:06:01.119Z,20.80
2018-08-24T06:08:30.341Z,20.80
2018-08-24T06:10:59.971Z,20.90
2018-08-24T06:13:28.615Z,20.90
2018-08-24T06:15:57.474Z,21.00
2018-08-24T06:18:26.075Z,21.10
2018-08-24T06:20:54.647Z,21.10
2018-08-24T06:23:23.319Z,21.20
2018-08-24T06:25:51.951Z,21.30
2018-08-24T06:28:20.558Z,21.40
2018-08-24T06:30:49.091Z,21.40
2018-08-24T06:33:17.805Z,21.50
2018-08-24T06:35:46.432Z,21.60
2018-08-24T06:38:15.295Z,21.70
2018-08-24T06:40:43.813Z,21.80
2018-08-24T06:43:12.416Z,22.00
2018-08-24T06:45:40.999Z,22.10
2018-08-24T06:48:09.579Z,22.20
2018-08-24T06:50:38.192Z,22.30
2018-08-24T06:53:06.780Z,22.40
2018-08-24T06:55:35.287Z,22.60
2018-08-24T06:58:03.910Z,22.70
2018-08-24T07:00:33.249Z,22.90
2018-08-24T07:03:02.699Z,23.00
2018-08-24T07:05:31.552Z,23.20
2018-08-24T07:08:00.175Z,23.40
2018-08-24T07:10:28.746Z,23.50
2018-08-24T07:12:57.371Z,23.70
2018-08-24T07:15:25.924Z,23.80
2018-08-24T07:18:00.329Z,24.00
2018-08-24T07:20:28.877Z,24.10
2018-08-24T07:22:57.504Z,24.20
2018-08-24T07:25:26.079Z,24.30
2018-08-24T07:27:54.584Z,24.50
2018-08-24T07:30:23.217Z,24.60
2018-08-24T07:32:51.761Z,24.70
2018-08-24T07:35:20.387Z,24.80
2018-08-24T07:37:48.961Z,24.90
2018-08-24T07:40:17.647Z,25.10
2018-08-24T07:42:46.223Z,25.20
2018-08-24T07:45:14.706Z,25.30
2018-08-24T07:47:43.245Z,25.40
2018-08-24T07:50:11.810Z,25.60
2018-08-24T07:52:40.380Z,25.80
2018-08-24T07:55:08.933Z,25.90
2018-08-24T07:57:37.527Z,26.00
2018-08-24T08:00:06.589Z,26.10
2018-08-24T08:02:40.461Z,26.20
2018-08-24T08:05:09.038Z,26.30
2018-08-24T08:07:37.731Z,26.40
2018-08-24T08:10:12.293Z,26.60
2018-08-24T08:12:40.870Z,26.70
2018-08-24T08:15:10.313Z,26.90
2018-08-24T08:17:39.975Z,27.00
2018-08-24T08:20:09.332Z,27.10
2018-08-24T08:22:37.835Z,27.20
2018-08-24T08:25:06.471Z,27.30
2018-08-24T08:27:35.039Z,27.40
2018-08-24T08:30:04.751Z,27.60
2018-08-24T08:32:33.800Z,27.70
2018-08-24T08:35:02.499Z,27.80
2018-08-24T08:37:31.109Z,27.90
2018-08-24T08:40:01.833Z,27.90
2018-08-24T08:42:30.487Z,28.00
2018-08-24T08:44:59.295Z,28.10
2018-08-24T08:47:27.815Z,28.00
2018-08-24T08:49:56.355Z,28.10
2018-08-24T08:52:24.928Z,28.20
2018-08-24T08:54:53.610Z,28.30
2018-08-24T08:57:22.139Z,28.50
2018-08-24T08:59:50.740Z,28.70
2018-08-24T09:02:19.285Z,28.80
2018-08-24T09:04:47.839Z,28.90
2018-08-24T09:07:16.380Z,29.10
2018-08-24T09:09:44.931Z,29.10
2018-08-24T09:12:13.559Z,29.10
2018-08-24T09:14:42.081Z,29.20
2018-08-24T09:17:15.773Z,29.10
2018-08-24T09:19:49.725Z,29.20
2018-08-24T09:22:23.532Z,29.30
2018-08-24T09:24:57.322Z,29.30
2018-08-24T09:27:30.205Z,29.40
2018-08-24T09:32:35.567Z,29.50
2018-08-24T09:35:04.374Z,29.50
2018-08-24T09:37:34.899Z,29.70
2018-08-24T09:40:03.652Z,29.70
2018-08-24T09:42:32.162Z,29.80
2018-08-24T09:45:00.834Z,29.80
2018-08-24T09:47:34.672Z,29.80
2018-08-24T09:50:10.208Z,29.90
2018-08-24T09:52:38.705Z,29.80
2018-08-24T09:55:07.301Z,29.60
2018-08-24T09:57:35.866Z,29.60
2018-08-24T10:00:04.528Z,29.70
2018-08-24T10:02:38.347Z,29.50
2018-08-24T10:05:12.014Z,29.30
2018-08-24T10:07:44.919Z,29.30
2018-08-24T10:10:14.340Z,29.20
2018-08-24T10:12:42.902Z,29.30
2018-08-24T10:15:11.519Z,29.20
2018-08-24T10:17:40.048Z,29.10
2018-08-24T10:20:08.570Z,29.20
2018-08-24T10:22:37.144Z,29.10
2018-08-24T10:25:05.729Z,28.90
2018-08-24T10:27:34.322Z,28.80
2018-08-24T10:30:02.806Z,28.60
2018-08-24T10:32:31.409Z,28.50
2018-08-24T10:34:59.958Z,28.40
2018-08-24T10:37:28.433Z,28.30
2018-08-24T10:39:56.980Z,28.30
2018-08-24T10:42:25.475Z,28.40
2018-08-24T10:44:53.968Z,28.60
2018-08-24T10:47:22.516Z,28.80
2018-08-24T10:49:51.006Z,29.00
2018-08-24T10:52:19.483Z,28.80
2018-08-24T10:54:48.080Z,28.60
2018-08-24T10:57:16.638Z,28.40
2018-08-24T10:59:45.252Z,28.20
2018-08-24T11:02:13.888Z,28.00
2018-08-24T11:04:42.324Z,27.90
2018-08-24T11:07:10.952Z,27.80
2018-08-24T11:09:39.445Z,27.70
2018-08-24T11:12:08.028Z,27.60
2018-08-24T11:14:36.541Z,27.50
2018-08-24T11:17:05.066Z,27.40
2018-08-24T11:19:33.643Z,27.40
2018-08-24T11:22:02.130Z,27.30
2018-08-24T11:24:30.697Z,27.20
2018-08-24T11:26:59.253Z,27.10
2018-08-24T11:29:27.778Z,27.00
2018-08-24T11:31:56.273Z,26.90
2018-08-24T11:34:24.807Z,26.70
2018-08-24T11:36:53.434Z,26.60
2018-08-24T11:39:21.989Z,26.30
2018-08-24T11:41:50.611Z,26.10
2018-08-24T11:44:19.181Z,25.90
2018-08-24T11:46:47.831Z,25.80
2018-08-24T11:49:16.426Z,25.70
2018-08-24T11:51:44.984Z,25.50
2018-08-24T11:54:13.555Z,25.40
2018-08-24T11:56:42.087Z,25.20
2018-08-24T11:59:11.867Z,25.10
2018-08-24T12:01:40.411Z,25.10
2018-08-24T12:04:08.907Z,25.00
2018-08-24T12:06:37.429Z,24.90
2018-08-24T12:09:13.960Z,24.80
2018-08-24T12:11:42.511Z,24.70
2018-08-24T12:14:11.413Z,24.70
2018-08-24T12:16:39.961Z,24.60
2018-08-24T12:19:09.131Z,24.50
2018-08-24T12:21:37.682Z,24.40
2018-08-24T12:26:40.461Z,24.30
2018-08-24T12:29:09.051Z,24.20
2018-08-24T12:31:37.707Z,24.10
2018-08-24T12:34:06.557Z,24.00
2018-08-24T12:36:35.222Z,23.90
2018-08-24T12:39:04.939Z,23.90
2018-08-24T12:41:33.520Z,23.80
2018-08-24T12:44:02.135Z,23.80
2018-08-24T12:46:30.847Z,23.60
2018-08-24T12:48:59.427Z,23.70
2018-08-24T12:51:28.347Z,23.50
2018-08-24T12:53:56.992Z,23.50
2018-08-24T12:56:25.635Z,23.40
2018-08-24T12:58:54.268Z,23.40
2018-08-24T13:01:22.951Z,23.40
2018-08-24T13:03:51.629Z,23.30
2018-08-24T13:06:20.219Z,23.10
2018-08-24T13:08:48.795Z,22.90
2018-08-24T13:11:17.511Z,22.80
2018-08-24T13:13:46.135Z,22.60
2018-08-24T13:16:14.747Z,22.50
2018-08-24T13:18:43.410Z,22.40
2018-08-24T13:21:12.027Z,22.30
2018-08-24T13:23:40.623Z,22.20
2018-08-24T13:26:09.284Z,22.20
2018-08-24T13:28:37.907Z,22.20
2018-08-24T13:31:06.395Z,22.20
2018-08-24T13:33:35.011Z,22.20
2018-08-24T13:36:03.878Z,22.10
2018-08-24T13:38:32.818Z,22.10
2018-08-24T13:41:01.335Z,22.10
2018-08-24T13:43:29.915Z,22.00
2018-08-24T13:45:58.508Z,21.90
2018-08-24T13:48:27.074Z,21.80
2018-08-24T13:50:55.615Z,21.80
2018-08-24T13:53:24.198Z,21.80
2018-08-24T13:55:52.680Z,21.90
2018-08-24T13:58:21.776Z,21.90
2018-08-24T14:00:51.262Z,21.90
2018-08-24T14:03:20.333Z,21.90
2018-08-24T14:05:49.168Z,22.00
2018-08-24T14:08:19.210Z,22.00
2018-08-24T14:11:00.690Z,22.20
2018-08-24T14:13:30.308Z,22.20
2018-08-24T14:15:58.853Z,22.30
2018-08-24T14:18:28.146Z,22.30
2018-08-24T14:20:56.768Z,22.40
2018-08-24T14:23:25.256Z,22.40
2018-08-24T14:25:53.820Z,22.40
2018-08-24T14:28:22.397Z,22.50
2018-08-24T14:30:51.064Z,22.50
2018-08-24T14:33:19.606Z,22.60
2018-08-24T14:35:48.211Z,22.70
2018-08-24T14:38:16.844Z,22.70
2018-08-24T14:40:45.489Z,22.70
2018-08-24T14:43:14.164Z,22.80
2018-08-24T14:45:42.785Z,22.80
2018-08-24T14:48:11.371Z,22.90
2018-08-24T14:50:39.988Z,22.90
2018-08-24T14:53:08.607Z,22.90
2018-08-24T14:55:37.251Z,22.90
2018-08-24T14:58:05.775Z,22.90
2018-08-24T15:00:34.263Z,23.00
2018-08-24T15:03:02.911Z,22.90
2018-08-24T15:05:31.442Z,22.90
2018-08-24T15:07:59.967Z,23.00
2018-08-24T15:13:03.404Z,23.10
2018-08-24T15:15:31.899Z,23.00
2018-08-24T15:18:00.456Z,23.00
2018-08-24T15:20:29.003Z,23.00
2018-08-24T15:22:57.604Z,23.00
2018-08-24T15:25:26.042Z,22.90
2018-08-24T15:27:54.560Z,23.00
2018-08-24T15:30:23.067Z,23.00
2018-08-24T15:35:25.500Z,23.10
2018-08-24T15:37:54.029Z,23.20
2018-08-24T15:40:22.569Z,23.30
2018-08-24T15:42:51.067Z,23.30
2018-08-24T15:45:19.611Z,23.40
2018-08-24T15:47:48.146Z,23.40
2018-08-24T15:50:20.087Z,23.50
2018-08-24T15:52:48.610Z,23.50
2018-08-24T15:55:17.117Z,23.50
2018-08-24T15:57:45.603Z,23.60
2018-08-24T16:00:14.143Z,23.60
2018-08-24T16:02:42.654Z,23.60
2018-08-24T16:05:11.218Z,23.60
2018-08-24T16:07:40.102Z,23.70
2018-08-24T16:10:09.480Z,23.70
2018-08-24T16:12:38.401Z,23.70
2018-08-24T16:15:07.646Z,23.70
2018-08-24T16:17:36.244Z,23.70
2018-08-24T16:20:04.854Z,23.70
2018-08-24T16:22:33.415Z,23.70
2018-08-24T16:25:01.968Z,23.70
2018-08-24T16:27:33.073Z,23.70
2018-08-24T16:30:05.643Z,23.60
2018-08-24T16:32:34.237Z,23.60
2018-08-24T16:35:02.900Z,23.50
2018-08-24T16:37:31.416Z,23.50
2018-08-24T16:39:59.914Z,23.50
2018-08-24T16:42:28.381Z,23.50
2018-08-24T16:44:56.904Z,23.50
2018-08-24T16:47:25.408Z,23.40
2018-08-24T16:49:53.906Z,23.40
2018-08-24T16:52:22.418Z,23.40
2018-08-24T16:54:50.965Z,23.30
2018-08-24T16:57:19.486Z,23.30
2018-08-24T16:59:47.990Z,23.30
2018-08-24T17:02:17.369Z,23.30
2018-08-24T17:04:45.902Z,23.20
2018-08-24T17:07:14.451Z,23.10
2018-08-24T17:09:43.012Z,23.10
2018-08-24T17:12:11.612Z,23.10
2018-08-24T17:14:40.665Z,23.00
2018-08-24T17:17:09.184Z,23.00
2018-08-24T17:19:37.932Z,22.90
2018-08-24T17:22:08.120Z,22.90
2018-08-24T17:24:36.608Z,22.90
2018-08-24T17:27:05.481Z,22.90
2018-08-24T17:29:34.274Z,22.90
2018-08-24T17:32:03.420Z,22.90
2018-08-24T17:34:32.114Z,22.90
2018-08-24T17:37:00.774Z,22.90
2018-08-24T17:39:29.422Z,22.90
2018-08-24T17:41:58.158Z,22.80
2018-08-24T17:44:26.708Z,22.80
2018-08-24T17:46:55.398Z,22.70
2018-08-24T17:49:24.731Z,22.60
2018-08-24T17:51:53.378Z,22.50
2018-08-24T17:54:21.950Z,22.40
2018-08-24T17:56:50.537Z,22.30
2018-08-24T17:59:19.627Z,22.30
2018-08-24T18:01:48.356Z,22.20
2018-08-24T18:04:16.886Z,22.10
2018-08-24T18:06:45.420Z,22.00
2018-08-24T18:09:14.033Z,21.90
2018-08-24T18:11:42.686Z,21.90
2018-08-24T18:14:11.306Z,21.80
2018-08-24T18:16:39.994Z,21.70
2018-08-24T18:19:08.594Z,21.60
2018-08-24T18:21:37.206Z,21.50
2018-08-24T18:24:05.810Z,21.50
2018-08-24T18:26:34.368Z,21.40
2018-08-24T18:29:02.910Z,21.30
2018-08-24T18:31:31.414Z,21.30
2018-08-24T18:34:00.065Z,21.30
2018-08-24T18:36:28.655Z,21.30
2018-08-24T18:38:57.852Z,21.20
2018-08-24T18:41:26.478Z,21.20
2018-08-24T18:43:55.092Z,21.30
2018-08-24T18:46:23.676Z,21.20
2018-08-24T18:48:52.234Z,21.20
2018-08-24T18:51:20.784Z,21.20
2018-08-24T18:53:49.433Z,21.20
2018-08-24T18:56:18.050Z,21.30
2018-08-24T18:58:46.686Z,21.30
2018-08-24T19:01:15.342Z,21.20
2018-08-24T19:03:43.924Z,21.20
2018-08-24T19:06:12.486Z,21.20
2018-08-24T19:08:41.518Z,21.20
2018-08-24T19:11:15.438Z,21.20
2018-08-24T19:13:44.236Z,21.20
2018-08-24T19:16:12.831Z,21.20
2018-08-24T19:18:46.817Z,21.20
2018-08-24T19:21:20.632Z,21.20
2018-08-24T19:23:49.208Z,21.20
2018-08-24T19:26:17.873Z,21.20
2018-08-24T19:28:51.901Z,21.20
2018-08-24T19:31:21.551Z,21.20
2018-08-24T19:33:50.253Z,21.30
2018-08-24T19:36:18.952Z,21.30
2018-08-24T19:38:47.586Z,21.20
2018-08-24T19:41:24.694Z,21.20
2018-08-24T19:43:53.320Z,21.20
2018-08-24T19:46:22.022Z,21.20
2018-08-24T19:48:56.074Z,21.20
2018-08-24T19:51:24.985Z,21.20
2018-08-24T19:53:53.698Z,21.10
2018-08-24T19:56:22.227Z,21.10
2018-08-24T20:04:05.939Z,21.10
2018-08-24T20:06:40.105Z,21.00
2018-08-24T20:09:16.267Z,21.00
2018-08-24T20:11:47.373Z,21.00
2018-08-24T20:14:16.859Z,21.00
2018-08-24T20:16:50.944Z,20.90
2018-08-24T20:19:19.538Z,20.90
2018-08-24T20:21:49.075Z,20.80
2018-08-24T20:24:18.329Z,20.80
2018-08-24T20:26:47.742Z,20.80
2018-08-24T20:29:16.378Z,20.80
2018-08-24T20:31:44.995Z,20.80
2018-08-24T20:34:13.624Z,20.80
2018-08-24T20:36:42.203Z,20.80
2018-08-24T20:39:12.095Z,20.70
2018-08-24T20:41:41.136Z,20.70
2018-08-24T20:44:09.735Z,20.70
2018-08-24T20:46:38.335Z,20.70
2018-08-24T20:49:07.000Z,20.70
2018-08-24T20:51:35.646Z,20.80
2018-08-24T20:54:04.252Z,20.70
2018-08-24T20:56:32.839Z,20.80
2018-08-24T20:59:02.969Z,20.80
2018-08-24T21:01:31.597Z,20.80
2018-08-24T21:04:00.245Z,20.80
2018-08-24T21:06:28.864Z,20.80
2018-08-24T21:08:57.455Z,20.80
2018-08-24T21:11:26.066Z,20.80
2018-08-24T21:13:54.660Z,20.80
2018-08-24T21:16:23.227Z,20.80
2018-08-24T21:18:51.816Z,20.80
2018-08-24T21:21:20.396Z,20.80
2018-08-24T21:23:48.984Z,20.80
2018-08-24T21:26:17.632Z,20.80
2018-08-24T21:28:46.284Z,20.80
2018-08-24T21:31:14.896Z,20.70
2018-08-24T21:33:43.622Z,20.80
2018-08-24T21:36:12.244Z,20.70
2018-08-24T21:38:42.038Z,20.70
2018-08-24T21:41:10.705Z,20.70
2018-08-24T21:43:39.382Z,20.70
2018-08-24T21:46:08.439Z,20.70
2018-08-24T21:48:37.030Z,20.70
2018-08-24T21:51:05.753Z,20.70
2018-08-24T21:53:34.350Z,20.70
2018-08-24T21:56:03.086Z,20.70
2018-08-24T21:58:31.684Z,20.60
2018-08-24T22:01:00.305Z,20.60
2018-08-24T22:03:28.977Z,20.60
2018-08-24T22:05:57.610Z,20.60
2018-08-24T22:08:26.281Z,20.60
2018-08-24T22:10:54.862Z,20.60
2018-08-24T22:13:23.577Z,20.60
2018-08-24T22:15:52.164Z,20.60
2018-08-24T22:18:20.812Z,20.60
2018-08-24T22:20:49.375Z,20.70
2018-08-24T22:23:17.966Z,20.70
2018-08-24T22:25:46.620Z,20.70
2018-08-24T22:28:15.229Z,20.70
2018-08-24T22:30:43.831Z,20.70
2018-08-24T22:33:12.450Z,20.70
2018-08-24T22:35:41.040Z,20.70
2018-08-24T22:38:09.570Z,20.70
2018-08-24T22:40:38.644Z,20.70
2018-08-24T22:43:11.383Z,20.70
2018-08-24T22:45:40.003Z,20.70
2018-08-24T22:48:08.653Z,20.70
2018-08-24T22:50:37.290Z,20.80
2018-08-24T22:53:06.111Z,20.80
2018-08-24T22:55:34.812Z,20.80
2018-08-24T22:58:03.430Z,20.80
2018-08-24T23:00:32.024Z,20.80
2018-08-24T23:03:00.650Z,20.80
2018-08-24T23:05:29.275Z,20.90
2018-08-24T23:07:57.986Z,20.90
2018-08-24T23:10:26.538Z,21.00
2018-08-24T23:12:55.201Z,21.00
2018-08-24T23:15:23.758Z,21.00
2018-08-24T23:17:52.409Z,20.90
2018-08-24T23:20:21.067Z,20.90
2018-08-24T23:22:49.745Z,20.90
2018-08-24T23:25:18.443Z,20.90
2018-08-24T23:27:47.139Z,20.90
2018-08-24T23:30:15.872Z,20.90
2018-08-24T23:32:44.535Z,20.90
2018-08-24T23:35:13.194Z,20.90
2018-08-24T23:37:41.761Z,20.80
2018-08-24T23:40:10.321Z,20.80
2018-08-24T23:42:38.971Z,20.80
2018-08-24T23:45:07.583Z,20.80
2018-08-24T23:47:36.233Z,20.80
2018-08-24T23:50:05.390Z,20.80
2018-08-24T23:52:33.947Z,20.80
2018-08-24T23:55:02.621Z,20.80
2018-08-24T23:57:31.232Z,20.80
2018-08-24T23:59:59.831Z,20.80
